Thompson, Illinois
Current Conditions -  °F | °C
As of 4:15 PM on Monday 20 Oct 2014 (Local Time) from KSFY Reporting Station
Broken Clouds Broken Clouds  
Wind Chill: 66°   Ceiling: 5500
Heat Index: 66°   Visibility: 10mi
Dew Point: 41°   Wind: 12mph
Humidity: 40%   Direction: 300°WNW
Pressure: 29.92"   Gusts: 18mph
Location:  41.9768°N, 90.0511°W
Report Text: KSFY 202115Z AUTO 30010G16KT 10SM BKN055 19/05 A2992 RMK AO2 T01910051
Loading
Personal Weather Stations






























Interactive Weather Map
Tropical Storm Tracking
New forecast layout! Learn more

10-Day Weather Forecast

Advertisements
Track Severe Weather on mobile